Time;durP1;ratioP1;P1;durP2;ratioP2;P2;SDS_P1;SDS_P2;PMS_P1;PMS_P2;Temp;Humidity;BMP_temperature;BMP_pressure;BME280_temperature;BME280_humidity;BME280_pressure;Samples;Min_cycle;Max_cycle;Signal;HPM_P1;HPM_P2
2021/06/29 00:01:29;;;;;;;3.75;3.03;;;;;;;23.37;58.50;101297.69;5107475;27;20038;-62
2021/06/29 00:03:54;;;;;;;3.08;2.78;;;;;;;23.37;58.65;101289.72;5100293;28;20158;-62
2021/06/29 00:06:20;;;;;;;3.05;2.78;;;;;;;23.37;58.40;101286.25;5104301;27;20039;-62
2021/06/29 00:08:45;;;;;;;3.35;2.67;;;;;;;23.37;58.38;101292.38;5108609;27;20047;-62
2021/06/29 00:11:11;;;;;;;3.38;2.92;;;;;;;23.37;58.48;101284.41;5117587;27;20050;-62
2021/06/29 00:13:36;;;;;;;4.95;3.30;;;;;;;23.35;58.82;101282.94;5111609;27;20035;-62
2021/06/29 00:16:02;;;;;;;3.58;2.50;;;;;;;23.37;58.45;101275.59;5109035;27;20046;-62
2021/06/29 00:18:28;;;;;;;2.80;2.60;;;;;;;23.35;58.59;101270.50;5098921;27;20101;-62
2021/06/29 00:20:53;;;;;;;5.07;2.90;;;;;;;23.35;58.34;101267.00;5094732;27;20037;-62
2021/06/29 00:23:19;;;;;;;3.38;2.80;;;;;;;23.35;58.80;101264.34;5096920;27;20759;-62
2021/06/29 00:25:44;;;;;;;3.33;2.70;;;;;;;23.34;58.54;101260.88;5093931;27;20048;-62
2021/06/29 00:28:10;;;;;;;2.97;2.63;;;;;;;23.34;58.38;101262.69;5107932;27;20430;-62
2021/06/29 00:30:35;;;;;;;3.22;2.60;;;;;;;23.34;58.64;101249.38;5105515;27;20071;-62
2021/06/29 00:33:01;;;;;;;4.40;2.80;;;;;;;23.33;58.37;101235.28;5114797;28;20051;-62
2021/06/29 00:35:27;;;;;;;3.50;2.60;;;;;;;23.33;58.59;101240.59;5100483;28;20144;-62
2021/06/29 00:37:52;;;;;;;3.00;2.70;;;;;;;23.32;58.60;101241.63;5102823;28;20051;-62
2021/06/29 00:40:18;;;;;;;2.70;2.50;;;;;;;23.33;58.48;101248.56;5100819;28;20050;-62
2021/06/29 00:42:44;;;;;;;3.22;2.85;;;;;;;23.33;58.38;101247.75;5105876;28;20149;-62
2021/06/29 00:45:11;;;;;;;3.10;2.80;;;;;;;23.30;58.69;101251.63;5093929;28;20038;-62
2021/06/29 00:47:36;;;;;;;3.97;3.10;;;;;;;23.31;58.70;101239.97;5105414;28;20381;-62
2021/06/29 00:50:05;;;;;;;3.92;2.83;;;;;;;23.31;58.51;101244.47;5092481;28;20036;-62
2021/06/29 00:52:31;;;;;;;2.67;2.28;;;;;;;23.31;58.68;101249.78;5096110;28;20042;-62
2021/06/29 00:54:56;;;;;;;3.88;2.72;;;;;;;23.29;58.70;101251.81;5097905;28;20047;-62
2021/06/29 00:57:22;;;;;;;3.92;2.90;;;;;;;23.30;58.37;101261.44;5101086;28;20044;-62
2021/06/29 00:59:47;;;;;;;3.53;2.63;;;;;;;23.30;58.60;101267.56;5101439;28;20047;-62
2021/06/29 01:02:13;;;;;;;3.22;2.67;;;;;;;23.28;58.45;101271.44;5089045;28;20632;-62
2021/06/29 01:04:41;;;;;;;3.97;2.97;;;;;;;23.28;58.68;101266.13;5104821;28;20508;-61
2021/06/29 01:07:17;;;;;;;3.28;2.70;;;;;;;23.28;58.39;101282.06;5100443;28;20039;-62
2021/06/29 01:09:44;;;;;;;3.47;2.72;;;;;;;23.29;58.63;101284.53;5100942;28;20047;-62
2021/06/29 01:12:10;;;;;;;3.55;2.97;;;;;;;23.28;58.62;101271.44;5102859;28;20765;-62
2021/06/29 01:14:36;;;;;;;3.55;2.63;;;;;;;23.27;58.55;101273.25;5096121;28;20032;-61
2021/06/29 01:17:04;;;;;;;3.30;2.88;;;;;;;23.27;58.49;101278.56;5098943;28;20032;-61
2021/06/29 01:19:40;;;;;;;3.20;2.90;;;;;;;23.26;58.58;101276.94;5092113;28;20565;-62
2021/06/29 01:22:07;;;;;;;3.60;2.72;;;;;;;23.25;58.63;101272.63;5100848;28;20047;-62
2021/06/29 01:24:34;;;;;;;3.60;3.10;;;;;;;23.26;58.69;101262.84;5105679;28;20502;-61
2021/06/29 01:29:48;;;;;;;4.10;2.92;;;;;;;23.26;58.73;101268.16;5105483;28;20138;-62
2021/06/29 01:32:16;;;;;;;3.72;2.83;;;;;;;23.26;58.61;101265.50;5104375;28;20052;-62
2021/06/29 01:34:43;;;;;;;3.22;2.83;;;;;;;23.24;58.53;101260.38;5101787;28;20039;-62
2021/06/29 01:37:08;;;;;;;4.95;3.05;;;;;;;23.24;58.59;101256.88;5106784;28;20447;-62
2021/06/29 01:39:34;;;;;;;4.20;3.03;;;;;;;23.24;58.54;101256.88;5101473;28;20035;-62
2021/06/29 01:41:59;;;;;;;4.25;3.20;;;;;;;23.23;58.31;101253.41;5094533;28;20043;-62
2021/06/29 01:44:29;;;;;;;3.72;2.92;;;;;;;23.21;58.68;101250.94;5109636;28;20508;-62
2021/06/29 01:46:56;;;;;;;3.22;2.53;;;;;;;23.21;58.68;101240.31;5101085;28;20071;-62
2021/06/29 01:49:25;;;;;;;3.38;3.08;;;;;;;23.21;58.62;101239.50;5098136;28;20043;-62
2021/06/29 01:51:52;;;;;;;6.25;2.80;;;;;;;23.20;58.46;101236.03;5098269;28;20116;-62
2021/06/29 01:54:18;;;;;;;4.53;3.10;;;;;;;23.19;58.79;101230.91;5107818;28;20106;-62
2021/06/29 01:56:46;;;;;;;4.80;3.10;;;;;;;23.20;58.41;101240.53;5101232;28;20028;-61
2021/06/29 01:59:13;;;;;;;3.92;3.08;;;;;;;23.17;58.64;101236.41;5100974;28;20048;-61
2021/06/29 02:01:40;;;;;;;3.42;2.75;;;;;;;23.20;58.74;101237.88;5103154;28;20035;-62
2021/06/29 02:04:06;;;;;;;3.95;2.72;;;;;;;23.20;58.57;101237.88;5109044;28;20047;-62
2021/06/29 02:06:31;;;;;;;4.18;3.45;;;;;;;23.18;58.70;101230.09;5086382;28;20413;-61
2021/06/29 02:08:57;;;;;;;4.43;3.22;;;;;;;23.18;58.59;101235.41;5107282;28;20035;-62
2021/06/29 02:11:22;;;;;;;3.53;3.00;;;;;;;23.18;58.76;101238.06;5104799;28;20096;-62
2021/06/29 02:13:48;;;;;;;4.50;2.97;;;;;;;23.17;58.57;101233.75;5104811;28;20027;-61
2021/06/29 02:16:14;;;;;;;5.40;2.90;;;;;;;23.17;58.57;101231.09;5095585;28;20542;-61
2021/06/29 02:18:39;;;;;;;3.92;3.03;;;;;;;23.18;58.42;101231.91;5092206;28;20078;-62
2021/06/29 02:21:06;;;;;;;4.38;2.92;;;;;;;23.16;58.59;101229.47;5101514;28;20043;-61
2021/06/29 02:23:32;;;;;;;3.55;2.83;;;;;;;23.17;58.55;101238.25;5098342;28;20044;-62
2021/06/29 02:25:57;;;;;;;3.53;2.90;;;;;;;23.12;58.64;101230.00;5097123;28;20047;-62
2021/06/29 02:28:23;;;;;;;3.95;2.90;;;;;;;23.16;58.21;101233.91;5103387;28;20035;-62
2021/06/29 02:30:49;;;;;;;3.58;2.75;;;;;;;23.16;58.37;101232.13;5098235;28;20088;-62
2021/06/29 02:33:14;;;;;;;5.07;3.13;;;;;;;23.16;58.58;101224.16;5102084;28;20453;-61
2021/06/29 02:35:40;;;;;;;3.67;2.85;;;;;;;23.14;58.58;101214.69;5107118;28;20081;-62
2021/06/29 02:38:06;;;;;;;4.10;3.10;;;;;;;23.13;58.23;101221.84;5107600;28;20031;-62
2021/06/29 02:40:32;;;;;;;3.55;2.78;;;;;;;23.13;58.52;101216.53;5106555;28;20046;-62
2021/06/29 02:42:58;;;;;;;3.88;2.80;;;;;;;23.14;58.63;101214.69;5100384;28;20080;-62
2021/06/29 02:45:25;;;;;;;4.88;3.13;;;;;;;23.15;58.48;101211.84;5104561;28;20044;-62
2021/06/29 02:47:52;;;;;;;5.10;3.03;;;;;;;23.15;58.64;101214.50;5101529;28;20047;-62
2021/06/29 02:50:18;;;;;;;4.45;3.08;;;;;;;23.13;58.54;101203.25;5105579;28;20485;-61
2021/06/29 02:52:44;;;;;;;4.18;3.00;;;;;;;23.12;58.30;101206.91;5105862;28;20024;-62
2021/06/29 02:55:11;;;;;;;3.38;2.78;;;;;;;23.12;58.52;101204.25;5103690;28;20043;-62
2021/06/29 02:57:37;;;;;;;4.25;3.25;;;;;;;23.10;58.37;101203.63;5102766;28;20089;-62
2021/06/29 03:00:07;;;;;;;3.78;2.78;;;;;;;23.11;58.34;101197.31;5093827;28;20122;-61
2021/06/29 03:02:32;;;;;;;;;;;;;;;23.12;58.64;101190.16;5087306;28;20494;-62
2021/06/29 03:04:58;;;;;;;3.42;3.08;;;;;;;23.09;58.35;101190.56;5105207;28;19926;-62
2021/06/29 03:07:24;;;;;;;3.65;2.88;;;;;;;23.11;58.39;101191.19;5104516;28;20047;-62
2021/06/29 03:09:49;;;;;;;3.85;3.05;;;;;;;23.12;58.45;101187.50;5102040;28;20046;-62
2021/06/29 03:12:15;;;;;;;4.13;2.63;;;;;;;23.10;58.23;101181.56;5106603;28;20389;-62
2021/06/29 03:14:41;;;;;;;3.75;2.88;;;;;;;23.10;58.49;101181.56;5103624;28;20043;-62
2021/06/29 03:17:07;;;;;;;4.25;2.80;;;;;;;23.10;58.35;101178.91;5103371;28;20044;-62
2021/06/29 03:19:34;;;;;;;2.85;2.33;;;;;;;23.03;58.28;101170.09;5104860;28;20118;-62
2021/06/29 03:22:01;;;;;;;3.40;2.65;;;;;;;23.09;58.65;101177.28;5098875;28;20105;-62
2021/06/29 03:24:27;;;;;;;4.22;2.85;;;;;;;23.10;58.34;101176.25;5088164;28;20053;-61
2021/06/29 03:26:54;;;;;;;3.80;2.08;;;;;;;23.04;58.52;101169.06;5103877;28;20051;-62
2021/06/29 03:29:20;;;;;;;3.95;2.92;;;;;;;23.07;58.48;101166.84;5106711;28;20099;-62
2021/06/29 03:31:45;;;;;;;3.10;2.10;;;;;;;23.08;58.46;101154.38;5106387;28;20837;-62
2021/06/29 03:34:11;;;;;;;3.22;2.40;;;;;;;23.08;58.52;101163.16;5103146;28;20039;-62
2021/06/29 03:36:37;;;;;;;3.03;2.22;;;;;;;23.08;58.62;101171.13;5096583;28;20061;-62
2021/06/29 03:39:05;;;;;;;3.30;2.60;;;;;;;23.07;58.66;101174.81;5102378;28;20340;-62
2021/06/29 03:41:30;;;;;;;3.08;2.20;;;;;;;23.07;58.42;101171.34;5079524;28;20085;-62
2021/06/29 03:43:56;;;;;;;2.80;2.40;;;;;;;23.07;58.63;101185.44;5101742;28;20073;-62
2021/06/29 03:46:22;;;;;;;2.50;2.08;;;;;;;23.04;58.47;101166.41;5100941;28;20046;-61
2021/06/29 03:48:47;;;;;;;3.88;2.53;;;;;;;23.06;58.18;101159.88;5099314;28;20093;-61
2021/06/29 03:51:13;;;;;;;3.75;2.28;;;;;;;23.07;58.18;101168.69;5095770;28;20040;-62
2021/06/29 03:53:39;;;;;;;2.63;2.17;;;;;;;23.06;58.38;101169.69;5097123;28;20104;-62
2021/06/29 03:56:05;;;;;;;2.30;1.92;;;;;;;23.05;58.16;101174.19;5088516;28;20481;-62
2021/06/29 03:58:30;;;;;;;3.47;2.08;;;;;;;23.06;58.20;101172.34;5099002;28;20130;-61
2021/06/29 04:00:56;;;;;;;2.92;2.40;;;;;;;23.06;58.35;101173.16;5096639;28;20482;-62
2021/06/29 04:03:22;;;;;;;3.67;2.10;;;;;;;23.05;58.64;101192.78;5097949;28;20069;-62
2021/06/29 04:05:47;;;;;;;2.40;2.13;;;;;;;23.06;58.24;101190.94;5103307;28;20023;-62
2021/06/29 04:08:13;;;;;;;2.60;1.90;;;;;;;23.06;58.16;101188.28;5105756;28;20099;-62
2021/06/29 04:10:39;;;;;;;2.20;2.00;;;;;;;23.05;58.58;101187.47;5103587;28;20067;-62
2021/06/29 04:13:04;;;;;;;2.40;1.90;;;;;;;22.99;58.30;101179.47;5098703;28;20048;-62
2021/06/29 04:15:30;;;;;;;2.30;2.03;;;;;;;23.05;58.57;101190.13;5104319;28;20034;-62
2021/06/29 04:17:55;;;;;;;2.67;2.00;;;;;;;23.04;58.46;101182.34;5105394;28;20051;-63
2021/06/29 04:20:21;;;;;;;1.88;1.67;;;;;;;23.04;58.18;101183.16;5105006;28;20028;-61
2021/06/29 04:22:47;;;;;;;3.28;2.00;;;;;;;23.04;58.17;101177.84;5102244;28;20024;-62
2021/06/29 04:25:12;;;;;;;1.98;1.88;;;;;;;23.02;58.22;101177.22;5100384;28;20044;-62
2021/06/29 04:27:38;;;;;;;2.13;1.77;;;;;;;23.02;58.54;101177.22;5104987;28;20039;-62
2021/06/29 04:30:08;;;;;;;1.75;1.60;;;;;;;23.04;58.32;101183.16;5101082;28;20039;-62
2021/06/29 04:32:34;;;;;;;2.63;1.98;;;;;;;23.04;58.56;101190.31;5094755;28;20046;-62
2021/06/29 04:34:59;;;;;;;2.00;1.70;;;;;;;23.02;58.22;101173.75;5096373;28;20457;-61
2021/06/29 04:37:25;;;;;;;3.00;2.00;;;;;;;23.02;58.14;101193.16;5101443;28;20036;-62
2021/06/29 04:39:50;;;;;;;2.97;1.85;;;;;;;23.04;58.13;101185.81;5093659;28;20062;-62
2021/06/29 04:42:16;;;;;;;2.10;2.00;;;;;;;23.03;58.51;101192.16;5102074;28;20039;-61
2021/06/29 04:44:42;;;;;;;1.77;1.50;;;;;;;23.03;58.30;101186.84;5103615;28;20522;-61
2021/06/29 04:47:08;;;;;;;2.83;2.00;;;;;;;23.02;58.25;101185.19;5102012;28;20043;-61
2021/06/29 04:49:34;;;;;;;2.55;1.73;;;;;;;23.02;58.44;101185.19;5099737;28;20137;-62
2021/06/29 04:52:00;;;;;;;2.28;1.85;;;;;;;23.03;58.44;101188.69;5102685;28;20044;-62
2021/06/29 04:54:26;;;;;;;2.75;1.90;;;;;;;23.02;58.50;101182.53;5099787;28;20499;-61
2021/06/29 04:56:51;;;;;;;2.47;2.00;;;;;;;23.02;58.22;101173.75;5074533;28;20043;-62
2021/06/29 04:59:17;;;;;;;2.30;2.00;;;;;;;23.02;58.08;101171.09;5088603;28;20044;-62
2021/06/29 05:01:43;;;;;;;2.63;2.08;;;;;;;23.02;58.11;101171.09;5102603;28;20032;-63
2021/06/29 05:04:09;;;;;;;2.10;1.90;;;;;;;23.01;58.48;101164.16;5102013;28;20036;-62
2021/06/29 05:06:34;;;;;;;1.92;1.73;;;;;;;23.02;58.19;101166.59;5103522;28;20523;-62
2021/06/29 05:09:00;;;;;;;2.33;2.13;;;;;;;23.02;58.16;101157.81;5107477;28;20451;-62
2021/06/29 05:11:26;;;;;;;1.88;1.70;;;;;;;23.02;58.50;101161.28;5108541;28;20035;-62
2021/06/29 05:13:52;;;;;;;2.67;1.90;;;;;;;23.01;58.57;101151.69;5110375;28;20078;-62
2021/06/29 05:16:17;;;;;;;3.13;1.90;;;;;;;23.01;58.25;101154.34;5105719;28;20473;-62
2021/06/29 05:18:43;;;;;;;1.83;1.73;;;;;;;23.03;58.07;101162.13;5105143;28;20051;-62
2021/06/29 05:21:09;;;;;;;2.30;1.70;;;;;;;23.03;58.09;101170.09;5099768;28;20046;-62
2021/06/29 05:23:34;;;;;;;3.30;2.22;;;;;;;23.03;58.40;101167.44;5105785;28;20034;-62
2021/06/29 05:26:00;;;;;;;2.78;2.00;;;;;;;23.03;58.31;101178.06;5099943;28;20116;-62
2021/06/29 05:28:25;;;;;;;2.65;1.83;;;;;;;23.03;58.22;101186.03;5101421;28;20044;-62
2021/06/29 05:30:51;;;;;;;1.85;1.70;;;;;;;23.03;58.23;101199.31;5101239;28;20040;-62
2021/06/29 05:33:17;;;;;;;2.03;1.83;;;;;;;23.03;58.36;101208.09;5106107;28;20108;-62
2021/06/29 05:35:44;;;;;;;2.28;1.80;;;;;;;23.02;58.45;101205.63;5107636;27;20036;-62
2021/06/29 05:38:10;;;;;;;3.65;1.83;;;;;;;23.03;58.37;101213.41;5102377;27;20093;-62
2021/06/29 05:40:37;;;;;;;2.42;2.05;;;;;;;23.02;58.17;101200.31;5106411;27;20131;-62
2021/06/29 05:43:02;;;;;;;4.45;2.03;;;;;;;23.00;58.29;101197.03;5109719;27;20047;-62
2021/06/29 05:45:28;;;;;;;1.75;1.65;;;;;;;23.03;58.43;101199.31;5108416;28;20406;-62
2021/06/29 05:47:55;;;;;;;2.08;1.83;;;;;;;23.03;58.02;101200.13;5095279;28;20085;-62
2021/06/29 05:50:21;;;;;;;2.53;1.63;;;;;;;23.02;58.36;101195.81;5104519;28;20046;-62
2021/06/29 05:52:47;;;;;;;3.28;1.70;;;;;;;23.02;58.43;101184.38;5096372;28;20039;-62
2021/06/29 05:55:14;;;;;;;2.22;1.63;;;;;;;23.03;58.25;101188.69;5107895;28;20137;-62
2021/06/29 05:57:40;;;;;;;2.42;1.80;;;;;;;23.02;58.29;101200.31;5107794;28;20035;-62
2021/06/29 06:00:11;;;;;;;2.28;1.85;;;;;;;23.02;58.07;101206.44;5101500;28;20045;-62
2021/06/29 06:02:41;;;;;;;2.17;1.90;;;;;;;23.00;58.21;101200.50;5099917;28;20385;-62
2021/06/29 06:05:08;;;;;;;2.42;1.90;;;;;;;23.02;58.16;101211.75;5096154;28;20043;-62
2021/06/29 06:07:35;;;;;;;2.33;1.80;;;;;;;23.02;58.03;101211.75;5105677;28;20036;-62
2021/06/29 06:10:01;;;;;;;3.20;1.80;;;;;;;23.03;58.01;101209.94;5107959;28;20081;-62
2021/06/29 06:12:26;;;;;;;2.28;1.88;;;;;;;23.02;58.08;101214.41;5106273;28;20397;-62
2021/06/29 06:14:52;;;;;;;2.10;1.90;;;;;;;22.99;58.25;101198.88;5104020;28;20035;-62
2021/06/29 06:17:18;;;;;;;2.08;1.55;;;;;;;23.03;57.96;101201.97;5108684;28;20031;-62
2021/06/29 06:19:44;;;;;;;2.63;1.85;;;;;;;23.02;57.94;101198.47;5085704;28;20039;-62
2021/06/29 06:22:10;;;;;;;3.45;2.42;;;;;;;23.02;58.26;101193.16;5100003;28;20084;-62
2021/06/29 06:24:35;;;;;;;2.65;2.00;;;;;;;23.03;58.31;101208.09;5107793;28;20051;-62
2021/06/29 06:27:01;;;;;;;2.92;2.00;;;;;;;23.02;57.92;101193.16;5101766;28;20036;-62
2021/06/29 06:29:26;;;;;;;3.75;2.13;;;;;;;23.00;57.98;101197.84;5106058;28;20489;-62
2021/06/29 06:31:52;;;;;;;3.28;2.08;;;;;;;23.03;58.23;101200.13;5087782;28;20128;-62
2021/06/29 06:34:17;;;;;;;4.85;2.50;;;;;;;23.03;58.45;101196.66;5106928;28;20085;-63
2021/06/29 06:36:43;;;;;;;2.85;1.83;;;;;;;23.02;58.17;101189.69;5105699;28;20481;-62
2021/06/29 06:39:09;;;;;;;3.30;1.98;;;;;;;23.01;58.15;101188.88;5106691;28;20054;-62
2021/06/29 06:41:34;;;;;;;2.25;2.03;;;;;;;23.03;58.21;101189.50;5106899;28;20043;-62
2021/06/29 06:44:00;;;;;;;3.67;2.10;;;;;;;23.04;58.44;101182.34;5104912;28;20027;-63
2021/06/29 06:46:25;;;;;;;3.20;2.42;;;;;;;23.03;58.23;101180.72;5100374;28;20044;-65
2021/06/29 06:48:51;;;;;;;3.47;2.03;;;;;;;23.04;58.03;101169.06;5105816;27;20039;-66
2021/06/29 06:51:17;;;;;;;3.17;2.22;;;;;;;23.04;57.94;101167.22;5108839;27;20096;-66
2021/06/29 06:53:44;;;;;;;3.22;2.22;;;;;;;23.00;58.11;101160.66;5106659;27;20134;-65
2021/06/29 06:56:14;;;;;;;3.85;2.20;;;;;;;23.06;57.93;101159.06;5104289;28;20469;-66
2021/06/29 06:58:44;;;;;;;3.20;2.20;;;;;;;23.07;57.99;101163.38;5106005;27;20047;-66
2021/06/29 07:01:10;;;;;;;2.53;2.10;;;;;;;23.01;58.02;101156.19;5101945;28;20059;-66
2021/06/29 07:03:36;;;;;;;3.25;2.17;;;;;;;23.07;57.99;101171.34;5110276;27;20175;-66
2021/06/29 07:06:03;;;;;;;2.92;2.13;;;;;;;23.07;58.07;101168.69;5105192;27;20043;-66
2021/06/29 07:08:28;;;;;;;4.78;2.55;;;;;;;23.08;57.88;101170.31;5108063;27;20027;-66
2021/06/29 07:10:56;;;;;;;4.40;2.45;;;;;;;23.07;58.12;101171.34;5106570;27;20062;-66
2021/06/29 07:13:21;;;;;;;4.25;2.70;;;;;;;23.08;58.18;101167.66;5107728;27;20675;-66
2021/06/29 07:15:47;;;;;;;3.67;2.50;;;;;;;23.05;58.16;101160.91;5104663;28;20032;-66
2021/06/29 07:18:15;;;;;;;3.38;2.42;;;;;;;23.08;57.89;101171.13;5106604;27;20817;-65
2021/06/29 07:20:41;;;;;;;4.68;2.53;;;;;;;23.09;58.31;101164.81;5106213;27;20026;-65
2021/06/29 07:23:08;;;;;;;5.82;3.17;;;;;;;23.10;58.31;101170.94;5106115;27;20038;-65
2021/06/29 07:25:33;;;;;;;9.65;4.57;;;;;;;22.77;60.97;101174.09;5103890;28;20031;-69
2021/06/29 07:27:59;;;;;;;12.15;5.55;;;;;;;21.57;65.36;101176.41;5071834;28;20051;-69
2021/06/29 07:30:24;;;;;;;13.50;5.82;;;;;;;21.24;67.30;101180.34;5095920;28;20052;-69
2021/06/29 07:32:55;;;;;;;14.57;6.00;;;;;;;21.13;67.57;101179.78;5078123;28;20108;-68
2021/06/29 07:35:21;;;;;;;11.52;6.45;;;;;;;21.35;67.29;101185.22;5098972;28;20050;-71
2021/06/29 07:37:46;;;;;;;11.02;5.53;;;;;;;21.59;65.93;101178.88;5080103;28;20032;-69
2021/06/29 07:40:12;;;;;;;12.80;5.90;;;;;;;21.38;66.55;101179.59;5081431;28;20035;-70
2021/06/29 07:42:38;;;;;;;18.35;6.53;;;;;;;21.32;66.89;101169.69;5060709;28;20043;-69
2021/06/29 07:45:05;;;;;;;8.95;5.13;;;;;;;22.01;64.18;101167.56;5100220;28;20168;-69
2021/06/29 07:47:31;;;;;;;11.30;5.82;;;;;;;22.68;62.34;101146.06;5055109;28;20504;-71
2021/06/29 07:49:57;;;;;;;10.85;5.28;;;;;;;22.33;63.44;101149.59;5094571;28;20067;-70
2021/06/29 07:52:22;;;;;;;7.25;4.95;;;;;;;21.67;65.68;101157.56;5060633;28;20035;-69
2021/06/29 07:54:48;;;;;;;10.30;5.95;;;;;;;21.71;65.64;101162.28;5091582;28;20044;-69
2021/06/29 07:57:14;;;;;;;8.73;4.72;;;;;;;22.54;62.75;101153.09;5089455;28;20465;-65
2021/06/29 07:59:39;;;;;;;9.10;4.35;;;;;;;22.68;62.19;101159.34;5081994;28;20071;-67
2021/06/29 08:02:05;;;;;;;8.82;4.82;;;;;;;22.90;61.15;101162.81;5101211;28;20039;-67
2021/06/29 08:04:30;;;;;;;7.40;4.60;;;;;;;22.99;61.18;101161.69;5074493;28;20100;-65
2021/06/29 08:06:56;;;;;;;8.10;5.13;;;;;;;22.99;61.14;101168.84;5096779;28;20039;-66
2021/06/29 08:09:21;;;;;;;7.97;5.20;;;;;;;22.87;61.62;101168.53;5070371;28;20543;-66
2021/06/29 08:11:47;;;;;;;12.18;5.82;;;;;;;22.67;62.20;101170.16;5097505;28;20043;-66
2021/06/29 08:14:13;;;;;;;8.55;5.35;;;;;;;22.47;62.83;101172.63;5045681;28;20063;-66
2021/06/29 08:16:39;;;;;;;10.65;5.78;;;;;;;22.43;63.16;101166.03;5096534;28;20404;-66
2021/06/29 08:19:05;;;;;;;11.52;5.47;;;;;;;22.39;63.43;101162.94;5071601;28;20074;-66
2021/06/29 08:21:30;;;;;;;9.57;6.00;;;;;;;22.38;63.12;101173.72;5096019;28;20036;-66
2021/06/29 08:23:56;;;;;;;10.05;5.45;;;;;;;22.38;63.09;101169.25;5058008;28;20169;-66
2021/06/29 08:26:23;;;;;;;11.25;5.60;;;;;;;22.46;62.63;101145.25;5094856;28;20081;-65
2021/06/29 08:28:48;;;;;;;10.85;5.35;;;;;;;22.62;62.33;101160.09;5063900;28;20035;-66
2021/06/29 08:31:14;;;;;;;13.32;5.47;;;;;;;22.61;62.29;101164.56;5088065;28;20047;-66
2021/06/29 08:33:39;;;;;;;8.93;5.53;;;;;;;22.66;62.32;101164.03;5095846;28;20043;-66
2021/06/29 08:36:05;;;;;;;8.40;5.45;;;;;;;22.34;63.36;101167.16;5072068;28;20035;-66
2021/06/29 08:38:31;;;;;;;9.95;5.55;;;;;;;22.34;63.15;101157.38;5095899;28;20486;-66
2021/06/29 08:40:56;;;;;;;12.45;7.30;;;;;;;22.34;63.47;101167.97;5073930;28;20035;-65
2021/06/29 08:43:22;;;;;;;10.68;5.18;;;;;;;22.34;63.27;101145.94;5105632;28;20031;-65
2021/06/29 08:45:48;;;;;;;10.48;5.50;;;;;;;22.54;62.85;101171.66;5067104;28;20113;-64
2021/06/29 08:48:15;;;;;;;12.30;5.85;;;;;;;22.25;63.76;101159.31;5103639;28;20051;-64
2021/06/29 08:50:42;;;;;;;14.20;6.15;;;;;;;22.46;63.10;101171.78;5076372;28;20043;-64
2021/06/29 08:53:11;;;;;;;11.23;5.80;;;;;;;22.54;63.01;101160.22;5097300;28;20031;-64
2021/06/29 08:55:45;;;;;;;10.07;5.30;;;;;;;22.61;62.81;101161.09;5069974;28;20199;-65
2021/06/29 08:58:15;;;;;;;8.32;5.45;;;;;;;22.67;61.90;101143.59;5093870;28;20369;-65
2021/06/29 09:00:41;;;;;;;8.65;5.72;;;;;;;22.91;61.97;101159.97;5069890;28;20031;-64
2021/06/29 09:03:06;;;;;;;11.85;5.45;;;;;;;22.89;62.04;101167.31;5088068;28;20039;-66
2021/06/29 09:05:32;;;;;;;9.40;5.22;;;;;;;22.80;61.70;101156.97;5097088;28;20051;-66
2021/06/29 09:08:18;;;;;;;10.00;5.10;;;;;;;22.91;61.37;101165.28;5052958;28;20036;-66
2021/06/29 09:11:17;;;;;;;12.35;6.10;;;;;;;22.88;61.39;101167.50;5094567;28;20112;-65
2021/06/29 09:14:05;;;;;;;9.95;5.32;;;;;;;22.88;61.36;101159.53;5095259;28;20440;-66
2021/06/29 09:16:30;;;;;;;11.70;6.60;;;;;;;22.33;63.29;101160.22;5070782;28;20032;-66
2021/06/29 09:18:56;;;;;;;14.50;6.72;;;;;;;22.28;63.82;101177.53;5085586;28;20048;-65
2021/06/29 09:21:23;;;;;;;10.93;5.88;;;;;;;22.52;63.34;101167.56;5096823;28;20043;-67
2021/06/29 09:23:50;;;;;;;13.00;6.07;;;;;;;22.61;63.14;101167.22;5070836;28;20100;-66
2021/06/29 09:26:18;;;;;;;10.57;5.68;;;;;;;22.61;62.87;101171.72;5094991;28;20035;-67
2021/06/29 09:28:48;;;;;;;15.55;6.82;;;;;;;22.22;64.88;101177.44;5038627;28;20590;-67
2021/06/29 09:31:16;;;;;;;12.02;6.50;;;;;;;22.37;64.16;101175.56;5094781;28;20397;-68
2021/06/29 09:33:47;;;;;;;11.18;5.55;;;;;;;22.75;62.25;101173.47;5066954;28;20076;-68
2021/06/29 09:36:15;;;;;;;10.70;6.40;;;;;;;23.26;60.86;101173.31;5095415;28;20487;-67
2021/06/29 09:38:44;;;;;;;9.40;6.13;;;;;;;22.65;63.01;101178.31;5074129;28;20024;-68
2021/06/29 09:41:21;;;;;;;12.50;6.82;;;;;;;22.22;64.24;101177.44;5098824;28;20048;-67
2021/06/29 09:43:52;;;;;;;12.13;6.53;;;;;;;22.00;65.19;101173.88;5061162;28;20067;-67
2021/06/29 09:46:20;;;;;;;11.57;6.53;;;;;;;22.34;64.06;101189.22;5099332;28;20505;-65
2021/06/29 09:48:55;;;;;;;12.75;6.20;;;;;;;22.60;63.38;101186.00;5065618;28;20035;-65
2021/06/29 09:51:32;;;;;;;11.50;5.93;;;;;;;22.44;63.73;101186.22;5098308;28;20704;-66
2021/06/29 09:54:06;;;;;;;10.70;6.43;;;;;;;22.45;63.43;101180.75;5076760;27;20112;-68
2021/06/29 09:56:41;;;;;;;11.15;6.57;;;;;;;22.45;63.61;101183.44;5104756;28;20031;-66
2021/06/29 09:59:12;;;;;;;13.55;6.55;;;;;;;22.39;63.78;101178.84;5081893;28;20047;-66
2021/06/29 10:01:37;;;;;;;13.73;6.93;;;;;;;22.46;64.04;101181.59;5105017;28;20118;-63
2021/06/29 10:04:04;;;;;;;13.23;6.60;;;;;;;22.58;63.45;101188.84;5080454;28;20031;-63
2021/06/29 10:06:33;;;;;;;11.10;6.32;;;;;;;22.44;63.59;101180.94;5101160;28;20043;-63
2021/06/29 10:09:12;;;;;;;13.18;7.28;;;;;;;22.42;63.65;101181.13;5073058;28;20393;-66
2021/06/29 10:11:41;;;;;;;;;;;;;;;22.29;64.04;101181.81;5104379;28;20046;-65
2021/06/29 10:14:12;;;;;;;11.98;6.70;;;;;;;22.40;63.41;101183.13;5076802;27;19915;-63
2021/06/29 10:16:42;;;;;;;12.50;7.82;;;;;;;22.35;63.61;101182.88;5103139;28;20028;-63
2021/06/29 10:21:49;;;;;;;13.02;7.28;;;;;;;22.55;59.51;101183.09;5104783;28;20047;-64
2021/06/29 10:24:20;;;;;;;12.60;6.45;;;;;;;22.00;57.68;101177.34;5078916;28;20363;-65
2021/06/29 10:26:48;;;;;;;9.50;6.45;;;;;;;21.77;57.38;101173.19;5102705;28;20047;-63
2021/06/29 10:29:15;;;;;;;9.68;6.85;;;;;;;21.51;57.57;101169.16;5079546;28;20909;-63
2021/06/29 10:31:47;;;;;;;13.00;7.35;;;;;;;21.58;65.15;101180.69;5106655;28;20039;-63
2021/06/29 10:34:14;;;;;;;12.00;8.20;;;;;;;21.63;60.49;101182.78;5084689;28;20034;-64
2021/06/29 10:36:42;;;;;;;13.45;8.77;;;;;;;21.36;60.75;101178.91;5093617;28;20031;-63
2021/06/29 10:39:14;;;;;;;12.13;8.18;;;;;;;21.56;66.21;101182.72;5106548;28;20089;-64
2021/06/29 10:41:42;;;;;;;12.07;8.50;;;;;;;21.46;60.27;101178.66;5073531;28;20039;-64
2021/06/29 10:44:13;;;;;;;10.82;7.70;;;;;;;21.41;63.24;101174.75;5102025;28;20054;-64
2021/06/29 10:46:53;;;;;;;10.95;7.95;;;;;;;21.60;62.20;101185.81;5078022;27;20564;-64
2021/06/29 10:49:39;;;;;;;12.10;7.00;;;;;;;21.31;58.58;101181.28;5102470;28;20075;-64
2021/06/29 10:52:23;;;;;;;10.45;7.57;;;;;;;21.40;63.70;101173.09;5097491;28;20059;-64
2021/06/29 10:54:51;;;;;;;10.25;7.72;;;;;;;21.47;61.35;101169.72;5084643;27;20047;-64
2021/06/29 10:57:24;;;;;;;9.85;6.97;;;;;;;21.27;61.95;101169.44;5102631;28;20123;-65
2021/06/29 10:59:55;;;;;;;10.23;7.07;;;;;;;21.63;64.82;101162.41;5080317;27;20034;-65
2021/06/29 11:02:29;;;;;;;8.98;6.82;;;;;;;21.56;58.46;101169.47;5102971;28;20038;-64
2021/06/29 11:04:55;;;;;;;11.05;8.23;;;;;;;21.26;63.23;101178.38;5075725;28;21486;-64
2021/06/29 11:07:26;;;;;;;12.80;6.90;;;;;;;21.69;62.10;101174.91;5093126;28;20031;-65
2021/06/29 11:09:57;;;;;;;9.55;7.18;;;;;;;21.35;57.97;101164.03;5103863;28;20455;-65
2021/06/29 11:12:26;;;;;;;13.93;8.25;;;;;;;21.44;63.76;101162.13;5078964;28;20112;-65
2021/06/29 11:14:54;;;;;;;10.90;7.82;;;;;;;21.34;60.91;101157.09;5103472;28;20056;-65
2021/06/29 11:17:24;;;;;;;15.65;9.02;;;;;;;21.09;63.38;101159.13;5075066;28;20031;-63
2021/06/29 11:20:13;;;;;;;11.88;8.50;;;;;;;21.54;62.27;101154.72;5105391;28;20096;-65
2021/06/29 11:23:01;;;;;;;13.05;9.63;;;;;;;21.72;63.33;101176.38;5077966;28;20050;-65
2021/06/29 11:25:29;;;;;;;11.45;9.00;;;;;;;21.91;63.87;101175.84;5097958;28;20778;-65
2021/06/29 11:28:14;;;;;;;13.45;8.95;;;;;;;22.02;64.14;101167.38;5049175;28;20036;-64
2021/06/29 11:30:55;;;;;;;16.48;9.88;;;;;;;22.02;63.71;101171.88;5103334;28;20407;-65